createdAt,value
2022-09-22T00:01:22.161Z,60.99
2022-09-22T00:03:53.007Z,61.33
2022-09-22T00:06:22.171Z,61.22
2022-09-22T00:08:52.235Z,61.28
2022-09-22T00:11:22.218Z,61.39
2022-09-22T00:13:53.199Z,61.58
2022-09-22T00:16:23.131Z,61.31
2022-09-22T00:18:52.386Z,61.49
2022-09-22T00:21:22.421Z,61.67
2022-09-22T00:23:50.747Z,61.75
2022-09-22T00:26:21.621Z,61.87
2022-09-22T00:28:51.130Z,62.02
2022-09-22T00:31:20.442Z,61.95
2022-09-22T00:33:48.498Z,61.79
2022-09-22T00:36:18.927Z,61.80
2022-09-22T00:38:47.365Z,61.64
2022-09-22T00:41:19.277Z,61.66
2022-09-22T00:43:48.708Z,61.64
2022-09-22T00:46:20.010Z,61.83
2022-09-22T00:48:52.465Z,61.71
2022-09-22T00:51:24.440Z,61.31
2022-09-22T00:53:53.230Z,61.65
2022-09-22T00:56:25.242Z,62.05
2022-09-22T00:58:57.742Z,61.80
2022-09-22T01:01:25.729Z,61.41
2022-09-22T01:03:54.207Z,61.13
2022-09-22T01:06:27.489Z,61.40
2022-09-22T01:08:55.815Z,61.35
2022-09-22T01:11:25.176Z,61.13
2022-09-22T01:13:59.562Z,61.25
2022-09-22T01:16:45.151Z,60.87
2022-09-22T01:19:40.254Z,60.96
2022-09-22T01:22:22.377Z,61.14
2022-09-22T01:25:06.553Z,61.48
2022-09-22T01:27:58.932Z,61.20
2022-09-22T01:30:34.497Z,61.50
2022-09-22T01:33:13.399Z,61.62
2022-09-22T01:35:49.790Z,61.71
2022-09-22T01:38:25.165Z,61.73
2022-09-22T01:40:59.033Z,62.16
2022-09-22T01:43:38.045Z,62.89
2022-09-22T01:46:13.061Z,63.03
2022-09-22T01:48:46.412Z,63.03
2022-09-22T01:51:18.724Z,62.89
2022-09-22T01:53:53.322Z,62.88
2022-09-22T01:56:23.979Z,62.97
2022-09-22T01:58:54.998Z,63.11
2022-09-22T02:01:28.326Z,63.08
2022-09-22T02:04:02.105Z,63.57
2022-09-22T02:06:33.705Z,63.85
2022-09-22T02:09:06.838Z,64.07
2022-09-22T02:11:35.006Z,64.26
2022-09-22T02:14:03.803Z,64.41
2022-09-22T02:16:33.732Z,64.25
2022-09-22T02:19:13.114Z,64.41
2022-09-22T02:21:42.584Z,64.37
2022-09-22T02:24:28.834Z,64.24
2022-09-22T02:26:57.751Z,64.53
2022-09-22T02:29:26.327Z,64.51
2022-09-22T02:31:56.355Z,64.53
2022-09-22T02:34:24.170Z,64.33
2022-09-22T02:36:58.354Z,64.37
2022-09-22T02:39:29.976Z,64.50
2022-09-22T02:42:16.975Z,64.21
2022-09-22T02:44:52.052Z,63.92
2022-09-22T02:47:27.981Z,64.37
2022-09-22T02:49:56.759Z,64.55
2022-09-22T02:52:25.537Z,64.45
2022-09-22T02:54:54.349Z,64.44
2022-09-22T02:57:22.706Z,64.22
2022-09-22T02:59:50.523Z,64.01
2022-09-22T03:02:18.163Z,64.58
2022-09-22T03:04:47.193Z,64.58
2022-09-22T03:07:14.857Z,64.89
2022-09-22T03:09:42.476Z,65.08
2022-09-22T03:12:13.024Z,65.18
2022-09-22T03:14:40.676Z,65.44
2022-09-22T03:17:08.326Z,65.34
2022-09-22T03:19:35.993Z,65.28
2022-09-22T03:22:05.297Z,65.17
2022-09-22T03:24:33.070Z,65.16
2022-09-22T03:27:00.647Z,65.04
2022-09-22T03:29:28.230Z,64.97
2022-09-22T03:31:55.837Z,65.46
2022-09-22T03:34:23.417Z,65.59
2022-09-22T03:36:51.904Z,65.74
2022-09-22T03:39:21.095Z,65.89
2022-09-22T03:41:49.565Z,65.94
2022-09-22T03:44:17.954Z,66.06
2022-09-22T03:46:45.654Z,66.35
2022-09-22T03:49:13.283Z,66.40
2022-09-22T03:51:41.028Z,66.66
2022-09-22T03:54:08.634Z,66.94
2022-09-22T03:56:37.527Z,66.88
2022-09-22T03:59:05.501Z,66.80
2022-09-22T04:01:34.070Z,66.35
2022-09-22T04:04:01.750Z,66.76
2022-09-22T04:06:29.331Z,66.32
2022-09-22T04:08:57.166Z,66.44
2022-09-22T04:11:25.103Z,67.06
2022-09-22T04:13:54.750Z,67.14
2022-09-22T04:16:22.775Z,67.06
2022-09-22T04:18:50.409Z,67.00
2022-09-22T04:21:18.007Z,67.63
2022-09-22T04:23:45.567Z,67.66
2022-09-22T04:26:13.126Z,67.39
2022-09-22T04:28:40.773Z,67.19
2022-09-22T04:31:09.841Z,66.81
2022-09-22T04:33:37.537Z,66.90
2022-09-22T04:36:05.542Z,66.79
2022-09-22T04:38:33.184Z,66.94
2022-09-22T04:41:01.320Z,66.87
2022-09-22T04:43:29.434Z,66.62
2022-09-22T04:45:57.068Z,66.50
2022-09-22T04:48:26.114Z,66.48
2022-09-22T04:50:53.749Z,66.85
2022-09-22T04:53:21.369Z,66.96
2022-09-22T04:55:50.708Z,66.71
2022-09-22T04:58:18.433Z,66.72
2022-09-22T05:00:46.067Z,66.98
2022-09-22T05:03:17.479Z,66.66
2022-09-22T05:05:49.683Z,66.97
2022-09-22T05:08:17.304Z,67.30
2022-09-22T05:10:45.292Z,67.21
2022-09-22T05:13:13.511Z,67.38
2022-09-22T05:15:41.600Z,67.24
2022-09-22T05:18:10.207Z,66.92
2022-09-22T05:20:37.905Z,66.76
2022-09-22T05:23:07.422Z,66.57
2022-09-22T05:25:35.050Z,66.46
2022-09-22T05:28:02.933Z,66.47
2022-09-22T05:30:30.976Z,66.85
2022-09-22T05:32:58.601Z,66.77
2022-09-22T05:35:29.979Z,66.92
2022-09-22T05:38:00.577Z,67.02
2022-09-22T05:40:29.639Z,67.43
2022-09-22T05:42:58.010Z,67.89
2022-09-22T05:45:25.635Z,67.54
2022-09-22T05:47:54.654Z,67.66
2022-09-22T05:50:23.698Z,67.67
2022-09-22T05:52:51.450Z,67.76
2022-09-22T05:55:19.584Z,67.64
2022-09-22T05:57:48.467Z,67.81
2022-09-22T06:00:16.474Z,67.55
2022-09-22T06:02:45.430Z,67.26
2022-09-22T06:05:16.448Z,67.34
2022-09-22T06:07:45.179Z,67.25
2022-09-22T06:10:13.055Z,67.42
2022-09-22T06:12:40.699Z,67.57
2022-09-22T06:15:10.601Z,67.49
2022-09-22T06:17:38.192Z,67.40
2022-09-22T06:20:08.287Z,67.35
2022-09-22T06:22:37.200Z,66.79
2022-09-22T06:25:05.393Z,66.90
2022-09-22T06:27:33.129Z,66.50
2022-09-22T06:30:00.733Z,66.41
2022-09-22T06:32:29.725Z,66.15
2022-09-22T06:34:59.757Z,66.46
2022-09-22T06:37:27.408Z,66.67
2022-09-22T06:39:55.089Z,66.38
2022-09-22T06:42:22.673Z,66.19
2022-09-22T06:44:50.344Z,66.38
2022-09-22T06:47:17.989Z,66.37
2022-09-22T06:49:47.232Z,66.62
2022-09-22T06:52:15.061Z,66.55
2022-09-22T06:54:42.777Z,66.46
2022-09-22T06:57:12.533Z,66.08
2022-09-22T06:59:41.133Z,66.19
2022-09-22T07:02:10.684Z,66.16
2022-09-22T07:04:38.448Z,66.06
2022-09-22T07:07:08.833Z,66.08
2022-09-22T07:09:36.469Z,66.14
2022-09-22T07:12:04.882Z,65.83
2022-09-22T07:14:32.634Z,65.79
2022-09-22T07:17:00.820Z,65.82
2022-09-22T07:19:28.400Z,66.09
2022-09-22T07:21:56.198Z,66.07
2022-09-22T07:24:27.785Z,66.37
2022-09-22T07:26:55.466Z,66.01
2022-09-22T07:29:23.065Z,66.21
2022-09-22T07:31:51.768Z,66.09
2022-09-22T07:34:19.499Z,65.61
2022-09-22T07:36:48.923Z,65.32
2022-09-22T07:39:16.605Z,65.37
2022-09-22T07:41:46.730Z,65.53
2022-09-22T07:44:33.029Z,65.27
2022-09-22T07:47:01.685Z,64.90
2022-09-22T07:49:29.898Z,64.52
2022-09-22T07:51:58.035Z,64.47
2022-09-22T07:54:26.903Z,64.31
2022-09-22T07:56:58.101Z,64.25
2022-09-22T07:59:26.713Z,64.25
2022-09-22T08:01:54.457Z,63.92
2022-09-22T08:04:23.772Z,63.58
2022-09-22T08:06:55.391Z,63.12
2022-09-22T08:09:23.760Z,63.13
2022-09-22T08:11:52.929Z,63.05
2022-09-22T08:14:22.226Z,62.70
2022-09-22T08:16:51.807Z,62.49
2022-09-22T08:19:19.995Z,60.82
2022-09-22T08:21:51.541Z,58.68
2022-09-22T08:24:21.885Z,57.89
2022-09-22T08:26:52.479Z,54.69
2022-09-22T08:29:21.925Z,46.89
2022-09-22T08:31:51.311Z,42.30
2022-09-22T08:34:20.152Z,39.56
2022-09-22T08:36:48.508Z,36.34
2022-09-22T08:39:18.329Z,32.33
2022-09-22T08:42:09.312Z,29.40
2022-09-22T08:44:43.219Z,30.47
2022-09-22T08:47:38.437Z,30.69
2022-09-22T08:50:37.317Z,26.41
2022-09-22T08:53:09.971Z,22.92
2022-09-22T08:55:42.985Z,20.29
2022-09-22T08:58:25.487Z,18.04
2022-09-22T09:01:04.902Z,16.85
2022-09-22T09:03:45.542Z,16.22
2022-09-22T09:06:16.433Z,17.01
2022-09-22T09:09:05.516Z,17.43
2022-09-22T09:11:59.198Z,17.74
2022-09-22T09:14:54.447Z,17.96
2022-09-22T09:17:27.637Z,19.69
2022-09-22T09:20:00.126Z,23.44
2022-09-22T09:22:32.673Z,27.16
2022-09-22T09:27:57.141Z,34.80
2022-09-22T09:30:25.070Z,37.20
2022-09-22T09:32:57.521Z,39.15
2022-09-22T09:35:32.266Z,40.74
2022-09-22T09:38:01.837Z,42.21
2022-09-22T09:40:29.918Z,41.64
2022-09-22T09:43:03.204Z,41.92
2022-09-22T09:45:38.242Z,42.07
2022-09-22T09:48:17.058Z,43.72
2022-09-22T09:50:44.618Z,44.75
2022-09-22T09:53:26.011Z,45.16
2022-09-22T09:55:53.593Z,45.77
2022-09-22T09:58:35.211Z,46.31
2022-09-22T10:01:04.422Z,47.42
2022-09-22T10:03:35.896Z,47.22
2022-09-22T10:06:07.500Z,46.98
2022-09-22T10:08:44.998Z,46.56
2022-09-22T10:11:14.994Z,45.91
2022-09-22T10:13:44.356Z,45.04
2022-09-22T10:16:30.620Z,45.71
2022-09-22T10:19:21.425Z,45.80
2022-09-22T10:21:49.104Z,45.05
2022-09-22T10:24:33.338Z,44.40
2022-09-22T10:27:03.791Z,44.68
2022-09-22T10:29:34.386Z,44.97
2022-09-22T10:32:05.435Z,45.40
2022-09-22T10:34:36.602Z,46.27
2022-09-22T10:37:10.504Z,45.10
2022-09-22T10:39:45.647Z,45.98
2022-09-22T10:42:34.208Z,45.90
2022-09-22T10:45:05.562Z,45.75
2022-09-22T10:47:40.662Z,44.31
2022-09-22T10:50:34.918Z,44.16
2022-09-22T10:53:13.286Z,44.07
2022-09-22T10:55:52.862Z,43.67
2022-09-22T10:58:53.809Z,41.36
2022-09-22T11:01:38.400Z,40.71
2022-09-22T11:04:35.159Z,40.61
2022-09-22T11:07:38.793Z,42.14
2022-09-22T11:10:36.842Z,41.76
2022-09-22T11:13:13.627Z,41.40
2022-09-22T11:16:00.189Z,42.36
2022-09-22T11:18:46.650Z,41.97
2022-09-22T11:21:31.228Z,41.93
2022-09-22T11:24:25.898Z,40.87
2022-09-22T11:26:56.976Z,39.83
2022-09-22T11:29:47.733Z,38.10
2022-09-22T11:32:31.857Z,36.86
2022-09-22T11:35:21.038Z,35.92
2022-09-22T11:37:58.699Z,36.36
2022-09-22T11:40:40.284Z,36.04
2022-09-22T11:43:26.866Z,36.54
2022-09-22T11:46:01.773Z,37.26
2022-09-22T11:48:46.155Z,38.20
2022-09-22T11:51:32.383Z,38.43
2022-09-22T11:54:26.696Z,39.67
2022-09-22T11:57:00.155Z,41.00
2022-09-22T11:59:36.226Z,39.73
2022-09-22T12:02:15.214Z,40.47
2022-09-22T12:04:50.669Z,40.79
2022-09-22T12:07:25.072Z,40.80
2022-09-22T12:09:56.517Z,40.89
2022-09-22T12:12:26.521Z,41.02
2022-09-22T12:15:01.418Z,41.93
2022-09-22T12:17:37.718Z,42.77
2022-09-22T12:20:17.370Z,42.78
2022-09-22T12:23:06.306Z,42.36
2022-09-22T12:25:49.096Z,42.30
2022-09-22T12:28:20.692Z,42.75
2022-09-22T12:31:02.295Z,42.61
2022-09-22T12:33:30.757Z,42.75
2022-09-22T12:35:59.456Z,43.42
2022-09-22T12:38:28.194Z,43.13
2022-09-22T12:40:59.802Z,43.66
2022-09-22T12:43:29.427Z,43.39
2022-09-22T12:45:59.724Z,43.49
2022-09-22T12:48:30.715Z,43.57
2022-09-22T12:51:17.001Z,42.95
2022-09-22T12:53:44.735Z,42.36
2022-09-22T12:56:46.353Z,43.23
2022-09-22T12:59:57.231Z,43.98
2022-09-22T13:02:30.897Z,43.49
2022-09-22T13:05:33.935Z,42.88
2022-09-22T13:08:01.749Z,43.79
2022-09-22T13:10:42.420Z,44.06
2022-09-22T13:13:11.133Z,44.35
2022-09-22T13:15:59.406Z,44.30
2022-09-22T13:18:32.542Z,44.26
2022-09-22T13:21:01.855Z,44.29
2022-09-22T13:23:30.155Z,44.06
2022-09-22T13:26:06.859Z,45.30
2022-09-22T13:28:34.482Z,44.38
2022-09-22T13:31:06.488Z,44.52
2022-09-22T13:33:36.192Z,45.14
2022-09-22T13:36:06.968Z,44.64
2022-09-22T13:38:38.174Z,43.53
2022-09-22T13:41:12.083Z,43.41
2022-09-22T13:43:43.109Z,44.17
2022-09-22T13:46:22.104Z,44.03
2022-09-22T13:48:51.270Z,43.93
2022-09-22T13:51:19.004Z,44.05
2022-09-22T13:53:51.767Z,44.15
2022-09-22T13:56:23.421Z,44.04
2022-09-22T13:58:55.462Z,43.39
2022-09-22T14:01:27.201Z,43.86
2022-09-22T14:03:55.764Z,43.79
2022-09-22T14:06:27.079Z,42.86
2022-09-22T14:08:56.073Z,42.47
2022-09-22T14:11:25.949Z,42.12
2022-09-22T14:14:04.408Z,42.51
2022-09-22T14:16:37.022Z,42.74
2022-09-22T14:19:08.577Z,42.53
2022-09-22T14:21:44.169Z,42.21
2022-09-22T14:24:15.000Z,42.51
2022-09-22T14:26:47.918Z,42.35
2022-09-22T14:29:18.974Z,42.35
2022-09-22T14:31:54.483Z,42.18
2022-09-22T14:34:26.459Z,42.15
2022-09-22T14:36:56.131Z,42.02
2022-09-22T14:39:31.867Z,42.19
2022-09-22T14:42:08.813Z,42.01
2022-09-22T14:44:44.567Z,41.43
2022-09-22T14:47:26.307Z,41.16
2022-09-22T14:50:18.819Z,40.76
2022-09-22T14:52:55.391Z,41.15
2022-09-22T14:55:34.200Z,41.39
2022-09-22T14:58:06.272Z,41.47
2022-09-22T15:00:52.212Z,41.28
2022-09-22T15:03:26.555Z,41.48
2022-09-22T15:05:54.803Z,41.39
2022-09-22T15:08:27.746Z,40.92
2022-09-22T15:10:57.350Z,40.81
2022-09-22T15:13:30.950Z,40.85
2022-09-22T15:15:58.661Z,41.37
2022-09-22T15:18:30.523Z,41.09
2022-09-22T15:21:00.768Z,41.00
2022-09-22T15:23:32.072Z,40.58
2022-09-22T15:26:03.580Z,40.56
2022-09-22T15:28:32.232Z,40.22
2022-09-22T15:30:59.870Z,40.53
2022-09-22T15:33:28.863Z,40.44
2022-09-22T15:36:01.969Z,40.93
2022-09-22T15:38:32.426Z,40.85
2022-09-22T15:41:00.318Z,40.58
2022-09-22T15:43:30.921Z,41.38
2022-09-22T15:46:01.797Z,40.90
2022-09-22T15:48:33.875Z,41.05
2022-09-22T15:51:04.654Z,41.20
2022-09-22T15:53:33.470Z,40.46
2022-09-22T15:56:04.862Z,40.42
2022-09-22T15:58:35.883Z,41.04
2022-09-22T16:01:04.234Z,41.08
2022-09-22T16:03:38.979Z,40.66
2022-09-22T16:06:11.962Z,40.35
2022-09-22T16:08:42.453Z,41.04
2022-09-22T16:11:13.823Z,41.16
2022-09-22T16:13:41.535Z,41.24
2022-09-22T16:16:10.290Z,40.78
2022-09-22T16:18:41.746Z,40.41
2022-09-22T16:21:19.612Z,40.39
2022-09-22T16:23:47.187Z,40.39
2022-09-22T16:26:14.908Z,40.95
2022-09-22T16:28:42.543Z,40.66
2022-09-22T16:31:10.192Z,40.98
2022-09-22T16:33:39.250Z,40.62
2022-09-22T16:36:07.027Z,41.16
2022-09-22T16:38:35.140Z,41.30
2022-09-22T16:41:03.873Z,41.51
2022-09-22T16:43:32.124Z,41.77
2022-09-22T16:46:18.220Z,42.09
2022-09-22T16:48:47.186Z,42.74
2022-09-22T16:51:15.586Z,42.54
2022-09-22T16:53:45.124Z,42.26
2022-09-22T16:56:12.681Z,41.85
2022-09-22T16:58:40.372Z,42.50
2022-09-22T17:01:08.030Z,42.51
2022-09-22T17:03:35.797Z,42.95
2022-09-22T17:06:05.543Z,42.51
2022-09-22T17:08:33.256Z,43.11
2022-09-22T17:11:01.183Z,42.73
2022-09-22T17:13:28.776Z,43.29
2022-09-22T17:16:09.996Z,43.40
2022-09-22T17:18:40.222Z,44.08
2022-09-22T17:21:09.467Z,43.98
2022-09-22T17:23:38.165Z,44.08
2022-09-22T17:26:11.653Z,44.65
2022-09-22T17:28:40.818Z,45.41
2022-09-22T17:31:10.953Z,46.00
2022-09-22T17:33:47.791Z,46.72
2022-09-22T17:36:20.555Z,46.75
2022-09-22T17:38:50.701Z,46.68
2022-09-22T17:41:20.580Z,47.33
2022-09-22T17:43:53.141Z,47.94
2022-09-22T17:46:21.435Z,48.00
2022-09-22T17:49:06.721Z,47.91
2022-09-22T17:51:54.917Z,48.84
2022-09-22T17:54:41.873Z,48.38
2022-09-22T17:57:11.420Z,49.28
2022-09-22T17:59:40.801Z,49.00
2022-09-22T18:02:10.982Z,49.38
2022-09-22T18:04:38.973Z,49.75
2022-09-22T18:07:09.726Z,49.72
2022-09-22T18:09:39.208Z,50.27
2022-09-22T18:12:09.848Z,50.60
2022-09-22T18:14:41.688Z,50.55
2022-09-22T18:17:09.547Z,50.86
2022-09-22T18:19:37.212Z,50.98
2022-09-22T18:22:06.117Z,51.24
2022-09-22T18:24:35.979Z,51.10
2022-09-22T18:27:04.160Z,51.07
2022-09-22T18:29:32.444Z,50.86
2022-09-22T18:32:00.113Z,51.51
2022-09-22T18:34:31.718Z,51.57
2022-09-22T18:37:00.448Z,51.76
2022-09-22T18:39:28.482Z,51.77
2022-09-22T18:41:57.721Z,51.58
2022-09-22T18:44:28.130Z,51.46
2022-09-22T18:46:56.340Z,51.95
2022-09-22T18:49:24.006Z,51.86
2022-09-22T18:51:53.059Z,51.79
2022-09-22T18:54:22.294Z,52.08
2022-09-22T18:56:51.707Z,52.26
2022-09-22T18:59:23.426Z,52.25
2022-09-22T19:01:52.046Z,52.12
2022-09-22T19:04:21.717Z,52.00
2022-09-22T19:07:08.960Z,52.38
2022-09-22T19:09:36.977Z,52.42
2022-09-22T19:12:07.859Z,52.06
2022-09-22T19:14:38.282Z,52.42
2022-09-22T19:17:07.126Z,52.30
2022-09-22T19:19:36.898Z,52.66
2022-09-22T19:22:07.468Z,52.83
2022-09-22T19:24:35.606Z,53.11
2022-09-22T19:27:04.570Z,53.01
2022-09-22T19:29:32.979Z,53.12
2022-09-22T19:32:02.995Z,53.09
2022-09-22T19:34:30.971Z,52.63
2022-09-22T19:36:59.429Z,52.80
2022-09-22T19:39:27.838Z,52.91
2022-09-22T19:41:56.032Z,53.11
2022-09-22T19:44:24.251Z,53.05
2022-09-22T19:46:51.947Z,52.65
2022-09-22T19:49:21.846Z,52.71
2022-09-22T19:51:49.464Z,52.32
2022-09-22T19:54:17.173Z,52.66
2022-09-22T19:56:44.766Z,53.09
2022-09-22T19:59:13.207Z,52.80
2022-09-22T20:01:43.001Z,52.99
2022-09-22T20:04:15.369Z,52.96
2022-09-22T20:06:44.626Z,52.96
2022-09-22T20:09:12.406Z,53.56
2022-09-22T20:11:41.963Z,53.53
2022-09-22T20:14:22.102Z,53.88
2022-09-22T20:16:52.156Z,54.23
2022-09-22T20:19:20.961Z,54.41
2022-09-22T20:21:51.398Z,54.76
2022-09-22T20:24:21.284Z,54.67
2022-09-22T20:26:49.827Z,54.98
2022-09-22T20:29:18.101Z,55.07
2022-09-22T20:31:45.927Z,55.58
2022-09-22T20:34:15.294Z,56.00
2022-09-22T20:36:44.093Z,56.05
2022-09-22T20:39:15.287Z,56.72
2022-09-22T20:41:44.361Z,56.57
2022-09-22T20:44:14.477Z,56.64
2022-09-22T20:46:43.045Z,56.66
2022-09-22T20:49:13.745Z,56.75
2022-09-22T20:51:41.662Z,56.67
2022-09-22T20:54:09.761Z,57.03
2022-09-22T20:56:42.608Z,57.21
2022-09-22T20:59:11.046Z,57.64
2022-09-22T21:01:38.616Z,57.55
2022-09-22T21:04:06.352Z,57.72
2022-09-22T21:06:34.118Z,57.32
2022-09-22T21:09:19.486Z,57.54
2022-09-22T21:11:48.415Z,57.60
2022-09-22T21:14:16.135Z,57.34
2022-09-22T21:16:43.711Z,57.60
2022-09-22T21:19:12.827Z,57.94
2022-09-22T21:21:40.441Z,58.10
2022-09-22T21:24:09.904Z,58.26
2022-09-22T21:26:37.858Z,58.36
2022-09-22T21:29:06.773Z,58.63
2022-09-22T21:31:35.310Z,59.01
2022-09-22T21:34:02.915Z,58.98
2022-09-22T21:36:30.549Z,59.26
2022-09-22T21:38:59.768Z,59.00
2022-09-22T21:41:28.968Z,59.41
2022-09-22T21:43:57.213Z,59.66
2022-09-22T21:46:29.483Z,59.81
2022-09-22T21:49:01.446Z,60.04
2022-09-22T21:51:30.349Z,60.02
2022-09-22T21:53:58.020Z,60.01
2022-09-22T21:56:26.798Z,60.33
2022-09-22T21:58:55.449Z,60.20
2022-09-22T22:01:25.410Z,60.15
2022-09-22T22:03:55.982Z,60.66
2022-09-22T22:06:26.138Z,60.62
2022-09-22T22:09:02.357Z,60.67
2022-09-22T22:11:33.555Z,60.80
2022-09-22T22:14:02.515Z,60.99
2022-09-22T22:16:33.147Z,61.35
2022-09-22T22:19:02.289Z,61.34
2022-09-22T22:21:31.769Z,61.65
2022-09-22T22:24:25.548Z,61.98
2022-09-22T22:26:57.050Z,61.55
2022-09-22T22:29:26.348Z,61.44
2022-09-22T22:31:53.998Z,61.67
2022-09-22T22:34:26.181Z,61.79
2022-09-22T22:36:54.560Z,62.19
2022-09-22T22:39:22.903Z,61.97
2022-09-22T22:41:50.652Z,61.87
2022-09-22T22:44:18.874Z,61.72
2022-09-22T22:46:46.937Z,61.49
2022-09-22T22:49:14.993Z,62.10
2022-09-22T22:51:44.346Z,62.46
2022-09-22T22:54:13.287Z,62.54
2022-09-22T22:56:42.824Z,62.58
2022-09-22T22:59:12.278Z,62.48
2022-09-22T23:01:40.257Z,61.96
2022-09-22T23:04:09.036Z,62.52
2022-09-22T23:06:38.886Z,62.35
2022-09-22T23:09:09.569Z,62.69
2022-09-22T23:11:39.804Z,62.37
2022-09-22T23:14:09.187Z,62.69
2022-09-22T23:16:38.695Z,62.66
2022-09-22T23:19:08.976Z,62.43
2022-09-22T23:21:37.752Z,62.06
2022-09-22T23:24:08.154Z,62.17
2022-09-22T23:26:37.165Z,62.49
2022-09-22T23:29:05.111Z,62.88
2022-09-22T23:31:32.871Z,62.90
2022-09-22T23:34:01.171Z,62.85
2022-09-22T23:36:29.947Z,62.30
2022-09-22T23:39:03.695Z,62.78
2022-09-22T23:41:34.466Z,63.13
2022-09-22T23:44:02.837Z,63.21
2022-09-22T23:46:30.839Z,63.41
2022-09-22T23:48:59.931Z,63.46
2022-09-22T23:51:27.888Z,63.63
2022-09-22T23:53:56.121Z,63.55
2022-09-22T23:56:24.168Z,63.14
2022-09-22T23:58:53.716Z,63.19
